Time;durP1;ratioP1;P1;durP2;ratioP2;P2;SDS_P1;SDS_P2;PMS_P1;PMS_P2;Temp;Humidity;BMP_temperature;BMP_pressure;BME280_temperature;BME280_humidity;BME280_pressure;Samples;Min_cycle;Max_cycle;Signal;HPM_P1;HPM_P2
2020/12/20 00:00:14;;;;;;;60.28;28.02;;;7.20;99.90;;;;;;5068821;28;20382;-54
2020/12/20 00:02:40;;;;;;;56.38;27.42;;;7.20;99.90;;;;;;5067584;28;20759;-55
2020/12/20 00:05:07;;;;;;;64.45;30.33;;;7.20;99.90;;;;;;5070712;28;20398;-54
2020/12/20 00:07:33;;;;;;;72.40;30.77;;;7.20;99.90;;;;;;5071547;28;20389;-52
2020/12/20 00:10:02;;;;;;;68.13;30.13;;;7.20;99.90;;;;;;5066751;28;20423;-54
2020/12/20 00:12:28;;;;;;;67.10;29.52;;;7.20;99.90;;;;;;5072736;28;20393;-55
2020/12/20 00:14:54;;;;;;;60.85;28.05;;;7.10;99.90;;;;;;5069970;28;20406;-54
2020/12/20 00:17:21;;;;;;;54.35;24.85;;;7.20;99.90;;;;;;5074119;28;20866;-52
2020/12/20 00:19:47;;;;;;;57.25;25.80;;;7.20;99.90;;;;;;5073280;28;20929;-55
2020/12/20 00:22:13;;;;;;;46.97;22.88;;;7.10;99.90;;;;;;5071541;28;20417;-53
2020/12/20 00:24:41;;;;;;;56.20;25.88;;;7.20;99.90;;;;;;5073768;28;20382;-52
2020/12/20 00:27:10;;;;;;;49.72;22.98;;;7.20;99.90;;;;;;5073940;28;20382;-56
2020/12/20 00:29:37;;;;;;;52.17;24.67;;;7.10;99.90;;;;;;5073491;28;20397;-57
2020/12/20 00:32:04;;;;;;;56.08;24.88;;;7.10;99.90;;;;;;5073968;28;20400;-56
2020/12/20 00:34:33;;;;;;;55.63;24.17;;;7.10;99.90;;;;;;5072290;28;20406;-56
2020/12/20 00:36:59;;;;;;;50.97;24.02;;;7.10;99.90;;;;;;5073719;28;20405;-57
2020/12/20 00:39:25;;;;;;;51.67;23.48;;;7.10;99.90;;;;;;5073519;28;20762;-57
2020/12/20 00:41:53;;;;;;;46.90;21.48;;;7.10;99.90;;;;;;5072322;28;20759;-57
2020/12/20 00:44:20;;;;;;;48.15;20.30;;;7.10;99.90;;;;;;5072539;28;20462;-57
2020/12/20 00:46:46;;;;;;;41.65;19.95;;;7.20;99.90;;;;;;5073264;28;20720;-56
2020/12/20 00:49:12;;;;;;;41.63;18.92;;;7.10;99.90;;;;;;5073657;28;20397;-56
2020/12/20 00:51:39;;;;;;;40.83;18.55;;;7.20;99.90;;;;;;5070251;28;20418;-56
2020/12/20 00:54:05;;;;;;;37.00;18.27;;;7.20;99.90;;;;;;5073504;28;20398;-55
2020/12/20 00:56:32;;;;;;;36.73;17.80;;;7.20;99.90;;;;;;5071856;28;20402;-55
2020/12/20 00:58:58;;;;;;;39.00;17.23;;;7.20;99.90;;;;;;5073098;28;20464;-56
2020/12/20 01:01:25;;;;;;;33.33;15.90;;;7.20;99.90;;;;;;5073576;28;20413;-56
2020/12/20 01:03:51;;;;;;;35.95;16.77;;;7.20;99.90;;;;;;5070428;28;20738;-57
2020/12/20 01:06:24;;;;;;;32.75;15.48;;;7.20;99.90;;;;;;5073142;28;20397;-56
2020/12/20 01:08:53;;;;;;;35.70;15.93;;;7.20;99.90;;;;;;5072780;28;20875;-56
2020/12/20 01:11:19;;;;;;;35.78;15.93;;;7.20;99.90;;;;;;5071629;28;20406;-58
2020/12/20 01:13:46;;;;;;;35.00;15.90;;;7.30;99.90;;;;;;5072501;28;20416;-57
2020/12/20 01:16:21;;;;;;;34.90;16.65;;;7.30;99.90;;;;;;5073240;28;20393;-54
2020/12/20 01:18:47;;;;;;;35.75;16.58;;;7.30;99.90;;;;;;5072389;28;20386;-57
2020/12/20 01:21:14;;;;;;;37.45;16.45;;;7.30;99.90;;;;;;5072054;28;20394;-57
2020/12/20 01:23:40;;;;;;;39.53;17.58;;;7.30;99.90;;;;;;5071309;28;20378;-54
2020/12/20 01:26:06;;;;;;;35.40;17.10;;;7.30;99.90;;;;;;5071907;28;20397;-53
2020/12/20 01:28:33;;;;;;;35.85;16.35;;;7.30;99.90;;;;;;5072710;28;20385;-54
2020/12/20 01:31:00;;;;;;;38.67;16.67;;;7.30;99.90;;;;;;5069165;28;20393;-56
2020/12/20 01:33:26;;;;;;;37.97;16.90;;;7.30;99.90;;;;;;5070871;28;20409;-54
2020/12/20 01:35:52;;;;;;;40.67;17.80;;;7.30;99.90;;;;;;5072540;28;20390;-56
2020/12/20 01:38:19;;;;;;;41.67;16.60;;;7.30;99.90;;;;;;5072217;28;20735;-53
2020/12/20 01:40:54;;;;;;;40.03;17.88;;;7.30;99.90;;;;;;5071997;28;20394;-56
2020/12/20 01:43:21;;;;;;;46.63;19.75;;;7.40;99.90;;;;;;5063533;28;20406;-56
2020/12/20 01:45:47;;;;;;;47.60;19.70;;;7.40;99.90;;;;;;5069255;28;20382;-53
2020/12/20 01:48:13;;;;;;;51.37;20.13;;;7.40;99.90;;;;;;5072707;28;20378;-56
2020/12/20 01:50:39;;;;;;;51.95;21.17;;;7.40;99.90;;;;;;5071449;28;20394;-55
2020/12/20 01:53:06;;;;;;;48.05;19.83;;;7.40;99.90;;;;;;5066455;28;20909;-53
2020/12/20 01:55:32;;;;;;;50.08;20.73;;;7.40;99.90;;;;;;5066324;28;20403;-55
2020/12/20 01:57:58;;;;;;;48.33;19.23;;;7.50;99.90;;;;;;5068900;28;20716;-55
2020/12/20 02:00:24;;;;;;;44.33;19.00;;;7.50;99.90;;;;;;5068371;28;20759;-56
2020/12/20 02:02:51;;;;;;;39.72;17.13;;;7.50;99.90;;;;;;5071575;28;20429;-53
2020/12/20 02:05:17;;;;;;;32.15;15.70;;;7.50;99.90;;;;;;5069911;28;20425;-54
2020/12/20 02:07:43;;;;;;;40.50;18.15;;;7.60;99.90;;;;;;5071029;28;20383;-53
2020/12/20 02:10:09;;;;;;;48.93;19.80;;;7.60;99.90;;;;;;5071629;28;20401;-55
2020/12/20 02:12:35;;;;;;;54.13;20.53;;;7.60;99.90;;;;;;5071566;28;20402;-54
2020/12/20 02:15:01;;;;;;;53.20;21.83;;;7.60;99.90;;;;;;5070168;28;20409;-54
2020/12/20 02:17:28;;;;;;;61.05;22.92;;;7.70;99.90;;;;;;5070248;28;21074;-53
2020/12/20 02:19:55;;;;;;;65.55;24.20;;;7.70;99.90;;;;;;5070815;28;20849;-56
2020/12/20 02:22:22;;;;;;;74.68;25.92;;;7.70;99.90;;;;;;5072034;28;20406;-56
2020/12/20 02:24:48;;;;;;;74.70;27.80;;;7.70;99.90;;;;;;5071828;28;20863;-53
2020/12/20 02:27:14;;;;;;;85.72;29.13;;;7.70;99.90;;;;;;5052340;28;20832;-54
2020/12/20 02:29:40;;;;;;;83.40;29.50;;;7.70;99.90;;;;;;5069728;28;20393;-53
2020/12/20 02:32:06;;;;;;;98.00;31.20;;;7.70;99.90;;;;;;5071575;28;20405;-53
2020/12/20 02:34:32;;;;;;;112.70;33.95;;;7.80;99.90;;;;;;5069839;28;20393;-53
2020/12/20 02:36:58;;;;;;;116.65;35.15;;;7.80;99.90;;;;;;5067359;28;20401;-55
2020/12/20 02:39:26;;;;;;;122.30;37.58;;;7.80;99.90;;;;;;5070768;28;20378;-52
2020/12/20 02:41:56;;;;;;;133.27;38.03;;;7.80;99.90;;;;;;5071139;28;20460;-52
2020/12/20 02:44:22;;;;;;;135.27;37.85;;;7.80;99.90;;;;;;5071075;28;20720;-55
2020/12/20 02:46:49;;;;;;;151.20;42.58;;;7.80;99.90;;;;;;5069621;28;20398;-54
2020/12/20 02:49:15;;;;;;;146.00;40.97;;;7.80;99.90;;;;;;5061222;28;20382;-51
2020/12/20 02:51:41;;;;;;;145.03;42.40;;;7.90;99.90;;;;;;5070327;28;20421;-52
2020/12/20 02:54:07;;;;;;;157.70;43.38;;;7.90;99.90;;;;;;5070758;28;20429;-54
2020/12/20 02:56:33;;;;;;;156.48;43.08;;;7.90;99.90;;;;;;5070622;28;20386;-53
2020/12/20 02:59:00;;;;;;;168.52;44.65;;;8.00;99.90;;;;;;5070643;28;20386;-53
2020/12/20 03:01:26;;;;;;;148.40;42.10;;;7.90;99.90;;;;;;5070475;28;20394;-52
2020/12/20 03:03:52;;;;;;;149.63;41.92;;;8.00;99.90;;;;;;5069662;28;20399;-53
2020/12/20 03:06:18;;;;;;;141.45;41.15;;;8.00;99.90;;;;;;5062814;28;20392;-52
2020/12/20 03:08:44;;;;;;;139.18;40.83;;;8.00;99.90;;;;;;5069491;28;20414;-53
2020/12/20 03:11:10;;;;;;;135.07;40.25;;;8.00;99.90;;;;;;5070602;28;20394;-54
2020/12/20 03:13:37;;;;;;;147.63;42.15;;;8.00;99.90;;;;;;5069754;28;20393;-54
2020/12/20 03:16:03;;;;;;;144.15;41.45;;;8.00;99.90;;;;;;5069746;28;20382;-53
2020/12/20 03:18:30;;;;;;;139.77;40.92;;;8.00;99.90;;;;;;5062539;28;20386;-52
2020/12/20 03:20:56;;;;;;;137.52;40.63;;;8.10;99.90;;;;;;5070048;28;20394;-55
2020/12/20 03:23:22;;;;;;;131.63;39.10;;;8.10;99.90;;;;;;5069980;28;20406;-54
2020/12/20 03:25:48;;;;;;;123.50;38.47;;;8.10;99.90;;;;;;5069413;28;20396;-52
2020/12/20 03:28:15;;;;;;;111.30;36.63;;;8.10;99.90;;;;;;5070816;28;20378;-51
2020/12/20 03:30:41;;;;;;;103.13;36.30;;;8.20;99.90;;;;;;5069273;28;20382;-54
2020/12/20 03:33:07;;;;;;;100.47;34.90;;;8.20;99.90;;;;;;5069961;28;20386;-52
2020/12/20 03:35:36;;;;;;;97.70;35.97;;;8.20;99.90;;;;;;5069152;28;20386;-53
2020/12/20 03:38:02;;;;;;;110.22;36.40;;;8.20;99.90;;;;;;5069629;28;20398;-51
2020/12/20 03:40:28;;;;;;;103.35;39.70;;;8.30;99.90;;;;;;5068532;28;20382;-53
2020/12/20 03:42:54;;;;;;;106.20;37.80;;;8.30;99.90;;;;;;5070566;28;20402;-51
2020/12/20 03:45:20;;;;;;;95.10;36.90;;;8.30;99.90;;;;;;5070521;28;20370;-52
2020/12/20 03:47:47;;;;;;;112.25;38.65;;;8.30;99.90;;;;;;5068939;28;20394;-54
2020/12/20 03:50:14;;;;;;;102.33;39.00;;;8.30;99.90;;;;;;5069210;28;20382;-52
2020/12/20 03:52:40;;;;;;;103.00;39.08;;;8.30;99.90;;;;;;5069601;28;20668;-52
2020/12/20 03:55:06;;;;;;;91.63;38.15;;;8.40;99.90;;;;;;5071278;28;20716;-53
2020/12/20 03:57:32;;;;;;;89.60;33.05;;;8.40;99.90;;;;;;5065775;28;20486;-52
2020/12/20 03:59:58;;;;;;;83.63;36.20;;;8.40;99.90;;;;;;5060125;28;20389;-51
2020/12/20 04:02:25;;;;;;;85.15;34.95;;;8.40;99.90;;;;;;5068689;28;20412;-53
2020/12/20 04:04:51;;;;;;;82.07;34.85;;;8.50;99.90;;;;;;5069211;28;20719;-54
2020/12/20 04:07:17;;;;;;;88.65;37.70;;;8.50;99.90;;;;;;5070223;28;20866;-51
2020/12/20 04:09:44;;;;;;;92.70;36.20;;;8.40;99.90;;;;;;5069616;28;20390;-52
2020/12/20 04:12:10;;;;;;;98.60;36.92;;;8.30;99.90;;;;;;5069253;28;20728;-54
2020/12/20 04:14:36;;;;;;;97.88;37.58;;;8.30;99.90;;;;;;5069345;28;20894;-55
2020/12/20 04:17:02;;;;;;;107.45;39.55;;;8.20;99.90;;;;;;5069913;28;20390;-54
2020/12/20 04:19:28;;;;;;;111.20;40.05;;;8.10;99.90;;;;;;5069039;28;20387;-52
2020/12/20 04:21:54;;;;;;;115.80;40.60;;;8.10;99.90;;;;;;5068216;28;20417;-55
2020/12/20 04:24:20;;;;;;;121.25;41.30;;;8.10;99.90;;;;;;5068309;28;20494;-53
2020/12/20 04:26:46;;;;;;;122.15;42.55;;;8.10;99.90;;;;;;5066849;28;20390;-54
2020/12/20 04:29:13;;;;;;;121.35;40.70;;;8.10;99.90;;;;;;5069384;28;20413;-55
2020/12/20 04:31:39;;;;;;;127.78;41.47;;;8.10;99.90;;;;;;5069354;28;20382;-52
2020/12/20 04:34:05;;;;;;;121.85;41.42;;;8.10;99.90;;;;;;5068611;28;20390;-53
2020/12/20 04:36:31;;;;;;;104.85;39.50;;;8.10;99.90;;;;;;5067923;28;20381;-54
2020/12/20 04:38:58;;;;;;;103.82;38.35;;;8.10;99.90;;;;;;5067245;28;20386;-54
2020/12/20 04:41:25;;;;;;;109.50;39.22;;;8.10;99.90;;;;;;5066394;28;20401;-52
2020/12/20 04:43:51;;;;;;;121.43;40.28;;;8.10;99.90;;;;;;5067912;28;20413;-53
2020/12/20 04:46:18;;;;;;;120.47;40.90;;;8.10;99.90;;;;;;5068120;28;20401;-53
2020/12/20 04:48:47;;;;;;;109.10;40.47;;;8.10;99.90;;;;;;5067581;28;20381;-54
2020/12/20 04:51:13;;;;;;;113.90;39.13;;;8.10;99.90;;;;;;5070170;28;20366;-55
2020/12/20 04:53:42;;;;;;;103.90;38.10;;;8.10;99.90;;;;;;5067340;28;20401;-51
2020/12/20 04:56:11;;;;;;;107.20;38.03;;;8.10;99.90;;;;;;5072781;28;20743;-54
2020/12/20 04:58:38;;;;;;;111.13;38.67;;;8.10;99.90;;;;;;5073310;28;20385;-53
2020/12/20 05:01:05;;;;;;;111.07;39.15;;;8.10;99.90;;;;;;5072978;28;20394;-54
2020/12/20 05:03:31;;;;;;;93.95;35.47;;;8.10;99.90;;;;;;5070205;28;20425;-55
2020/12/20 05:05:57;;;;;;;98.82;37.13;;;8.20;99.90;;;;;;5072907;28;20382;-55
2020/12/20 05:08:24;;;;;;;104.78;36.55;;;8.20;99.90;;;;;;5064801;28;20395;-51
2020/12/20 05:10:51;;;;;;;93.20;35.67;;;8.20;99.90;;;;;;5070782;28;20906;-53
2020/12/20 05:13:17;;;;;;;93.13;34.83;;;8.20;99.90;;;;;;5072955;28;20398;-55
2020/12/20 05:15:44;;;;;;;92.50;34.70;;;8.20;99.90;;;;;;5072122;28;20401;-52
2020/12/20 05:18:11;;;;;;;93.45;35.38;;;8.20;99.90;;;;;;5069436;28;20402;-55
2020/12/20 05:20:41;;;;;;;89.20;34.45;;;8.20;99.90;;;;;;5070678;28;20374;-54
2020/12/20 05:23:08;;;;;;;84.53;32.05;;;8.20;99.90;;;;;;5070612;28;20949;-51
2020/12/20 05:25:35;;;;;;;94.72;32.92;;;8.20;99.90;;;;;;5073108;28;20378;-52
2020/12/20 05:28:15;;;;;;;92.95;33.97;;;8.20;99.90;;;;;;5072879;28;20402;-52
2020/12/20 05:30:43;;;;;;;90.57;34.13;;;8.10;99.90;;;;;;5071949;28;20409;-52
2020/12/20 05:33:09;;;;;;;94.38;35.78;;;8.10;99.90;;;;;;5072003;28;20389;-53
2020/12/20 05:35:36;;;;;;;101.85;36.17;;;8.20;99.90;;;;;;5072540;28;20386;-51
2020/12/20 05:38:05;;;;;;;94.70;36.40;;;8.20;99.90;;;;;;5072429;28;20444;-55
2020/12/20 05:40:35;;;;;;;99.70;35.53;;;8.20;99.90;;;;;;5071435;28;20470;-55
2020/12/20 05:43:05;;;;;;;90.38;34.85;;;8.20;99.90;;;;;;5072787;28;20425;-51
2020/12/20 05:45:33;;;;;;;96.85;34.85;;;8.20;99.90;;;;;;5072031;28;20386;-55
2020/12/20 05:48:15;;;;;;;96.13;35.97;;;8.20;99.90;;;;;;5072503;28;20389;-52
2020/12/20 05:50:55;;;;;;;91.57;35.05;;;8.30;99.90;;;;;;5071741;28;20412;-52
2020/12/20 05:53:31;;;;;;;84.18;34.55;;;8.30;99.90;;;;;;5065483;28;20394;-54
2020/12/20 05:55:58;;;;;;;91.13;34.63;;;8.30;99.90;;;;;;5071032;28;20779;-54
2020/12/20 05:58:28;;;;;;;92.72;34.90;;;8.30;99.90;;;;;;5072602;28;20401;-52
2020/12/20 06:00:55;;;;;;;94.22;38.65;;;8.30;99.90;;;;;;5071858;28;20382;-54
2020/12/20 06:03:21;;;;;;;88.35;35.30;;;8.40;99.90;;;;;;5069023;28;20403;-52
2020/12/20 06:05:47;;;;;;;87.68;36.60;;;8.40;99.90;;;;;;5071400;28;20401;-55
2020/12/20 06:08:14;;;;;;;86.07;34.53;;;8.40;99.90;;;;;;5071974;28;20386;-52
2020/12/20 06:10:44;;;;;;;83.45;35.17;;;8.40;99.90;;;;;;5071409;28;20382;-55
2020/12/20 06:13:12;;;;;;;87.88;33.83;;;8.40;99.90;;;;;;5072236;28;20870;-52
2020/12/20 06:15:40;;;;;;;81.60;34.33;;;8.40;99.90;;;;;;5071146;28;20402;-53
2020/12/20 06:18:21;;;;;;;89.00;34.57;;;8.40;99.90;;;;;;5071738;28;20381;-52
2020/12/20 06:20:51;;;;;;;81.43;34.17;;;8.40;99.90;;;;;;5071449;28;20425;-55
2020/12/20 06:23:18;;;;;;;76.93;32.42;;;8.50;99.90;;;;;;5067520;28;20440;-53
2020/12/20 06:25:44;;;;;;;74.82;31.75;;;8.50;99.90;;;;;;5070259;28;20381;-54
2020/12/20 06:28:18;;;;;;;73.07;32.77;;;8.50;99.90;;;;;;5071713;28;20408;-53
2020/12/20 06:30:47;;;;;;;72.40;32.47;;;8.40;99.90;;;;;;5071177;28;20398;-52
2020/12/20 06:33:28;;;;;;;80.93;33.75;;;8.40;99.90;;;;;;5070735;28;20427;-56
2020/12/20 06:35:54;;;;;;;80.47;34.13;;;8.40;99.90;;;;;;5070215;28;20378;-53
2020/12/20 06:38:27;;;;;;;78.82;32.85;;;8.40;99.90;;;;;;5053348;28;20893;-53
2020/12/20 06:40:53;;;;;;;79.95;33.97;;;8.40;99.90;;;;;;5070767;28;20855;-53
2020/12/20 06:43:32;;;;;;;78.03;33.00;;;8.40;99.90;;;;;;5071130;28;20414;-56
2020/12/20 06:45:58;;;;;;;71.32;31.42;;;8.40;99.90;;;;;;5070044;28;20397;-55
2020/12/20 06:48:38;;;;;;;73.25;29.45;;;8.40;99.90;;;;;;5071788;28;20375;-54
2020/12/20 06:51:08;;;;;;;72.20;31.40;;;8.50;99.90;;;;;;5071490;28;20878;-52
2020/12/20 06:53:46;;;;;;;71.97;33.17;;;8.40;99.90;;;;;;5070871;28;20390;-54
2020/12/20 06:56:13;;;;;;;74.40;31.97;;;8.40;99.90;;;;;;5071081;28;20751;-55
2020/12/20 06:58:40;;;;;;;68.60;32.45;;;8.40;99.90;;;;;;5070612;28;20390;-56
2020/12/20 07:01:06;;;;;;;76.85;33.05;;;8.40;99.90;;;;;;5070855;28;20735;-53
2020/12/20 07:03:40;;;;;;;72.78;31.95;;;8.40;99.90;;;;;;5068248;28;20752;-53
2020/12/20 07:06:17;;;;;;;73.40;32.70;;;8.50;99.90;;;;;;5070989;28;20374;-55
2020/12/20 07:09:12;;;;;;;82.95;33.90;;;8.40;99.90;;;;;;5067518;28;20870;-52
2020/12/20 07:11:44;;;;;;;73.30;32.60;;;8.40;99.90;;;;;;5070311;28;20431;-55
2020/12/20 07:14:20;;;;;;;68.32;32.63;;;8.40;99.90;;;;;;5071176;28;20397;-52
2020/12/20 07:16:47;;;;;;;70.40;31.95;;;8.50;99.90;;;;;;5070145;28;20394;-52
2020/12/20 07:19:23;;;;;;;69.57;32.28;;;8.40;99.90;;;;;;5070784;28;20378;-53
2020/12/20 07:21:52;;;;;;;69.70;32.15;;;8.40;99.90;;;;;;5068052;28;20390;-53
2020/12/20 07:24:26;;;;;;;72.25;31.48;;;8.40;99.90;;;;;;5070904;28;20410;-54
2020/12/20 07:26:56;;;;;;;75.83;32.50;;;8.40;99.90;;;;;;5070608;28;20385;-53
2020/12/20 07:29:22;;;;;;;67.72;32.47;;;8.40;99.90;;;;;;5070047;28;20843;-53
2020/12/20 07:31:55;;;;;;;82.00;32.95;;;8.40;99.90;;;;;;5070002;28;20386;-53
2020/12/20 07:34:22;;;;;;;72.15;32.28;;;8.40;99.90;;;;;;5069524;28;20388;-52
2020/12/20 07:36:49;;;;;;;71.40;32.67;;;8.40;99.90;;;;;;5062662;28;20415;-56
2020/12/20 07:39:15;;;;;;;72.32;31.85;;;8.30;99.90;;;;;;5066160;28;20417;-55
2020/12/20 07:41:41;;;;;;;69.93;31.33;;;8.40;99.90;;;;;;5068735;28;20424;-56
2020/12/20 07:44:08;;;;;;;68.40;31.45;;;8.40;99.90;;;;;;5069487;28;20433;-56
2020/12/20 07:46:34;;;;;;;70.50;32.42;;;8.40;99.90;;;;;;5066926;28;20393;-56
2020/12/20 07:49:10;;;;;;;76.40;32.85;;;8.30;99.90;;;;;;5068501;28;20886;-53
2020/12/20 07:51:37;;;;;;;74.53;33.33;;;8.30;99.90;;;;;;5066395;28;20399;-55
2020/12/20 07:54:07;;;;;;;79.53;34.73;;;8.30;99.90;;;;;;5064914;28;20382;-53
2020/12/20 07:56:41;;;;;;;72.22;33.55;;;8.30;99.90;;;;;;5065395;28;20399;-53
2020/12/20 07:59:12;;;;;;;79.50;32.75;;;8.30;99.90;;;;;;5068693;28;20398;-53
2020/12/20 08:01:39;;;;;;;75.00;32.00;;;8.30;99.90;;;;;;5069776;28;20889;-53
2020/12/20 08:04:08;;;;;;;76.88;32.47;;;8.30;99.90;;;;;;5066584;28;20399;-54
2020/12/20 08:06:35;;;;;;;72.38;32.22;;;8.30;99.90;;;;;;5069649;28;20397;-54
2020/12/20 08:09:25;;;;;;;70.40;32.20;;;8.30;99.90;;;;;;5070044;28;20886;-54
2020/12/20 08:11:51;;;;;;;75.47;32.88;;;8.30;99.90;;;;;;5067011;28;20882;-56
2020/12/20 08:14:18;;;;;;;73.25;33.10;;;8.30;99.90;;;;;;5070221;28;20397;-55
2020/12/20 08:16:46;;;;;;;73.70;31.58;;;8.30;99.90;;;;;;5070116;28;20378;-54
2020/12/20 08:19:19;;;;;;;66.30;30.13;;;8.30;99.90;;;;;;5068989;28;20389;-54
2020/12/20 08:21:48;;;;;;;62.70;30.85;;;8.30;99.90;;;;;;5061837;28;20382;-56
2020/12/20 08:24:15;;;;;;;67.18;29.80;;;8.30;99.90;;;;;;5070352;28;20796;-53
2020/12/20 08:26:41;;;;;;;65.88;30.30;;;8.30;99.90;;;;;;5066638;28;20379;-54
2020/12/20 08:29:08;;;;;;;66.55;30.02;;;8.40;99.90;;;;;;5069759;28;20394;-55
2020/12/20 08:31:34;;;;;;;62.92;28.77;;;8.30;99.90;;;;;;5061936;28;20388;-54
2020/12/20 08:34:01;;;;;;;61.00;28.65;;;8.30;99.90;;;;;;5070925;28;20901;-55
2020/12/20 08:36:27;;;;;;;63.17;28.98;;;8.40;99.90;;;;;;5073928;28;20393;-57
2020/12/20 08:38:54;;;;;;;67.10;28.63;;;8.40;99.90;;;;;;5074160;28;20378;-55
2020/12/20 08:41:29;;;;;;;66.15;29.88;;;8.30;99.90;;;;;;5072677;28;20389;-53
2020/12/20 08:44:21;;;;;;;68.57;29.60;;;8.30;99.90;;;;;;5058723;28;20879;-54
2020/12/20 08:46:47;;;;;;;62.33;30.38;;;8.30;99.90;;;;;;5070745;28;20397;-53
2020/12/20 08:49:18;;;;;;;67.60;31.57;;;8.30;99.90;;;;;;5074140;28;20378;-55
2020/12/20 08:51:44;;;;;;;65.22;29.80;;;8.30;99.90;;;;;;5071293;28;20372;-54
2020/12/20 08:54:13;;;;;;;63.90;28.92;;;8.30;99.90;;;;;;5073830;28;20378;-56
2020/12/20 08:56:59;;;;;;;61.17;28.58;;;8.30;99.90;;;;;;5073512;28;20485;-56
2020/12/20 08:59:29;;;;;;;55.47;27.90;;;8.30;99.90;;;;;;5073672;28;20901;-56
2020/12/20 09:01:58;;;;;;;63.53;28.40;;;8.30;99.90;;;;;;5073571;28;20456;-55
2020/12/20 09:04:28;;;;;;;55.33;27.93;;;8.30;99.90;;;;;;5072328;28;20418;-56
2020/12/20 09:06:57;;;;;;;61.05;29.48;;;8.30;99.90;;;;;;5073480;28;20362;-55
2020/12/20 09:09:24;;;;;;;56.22;27.35;;;8.30;99.90;;;;;;5057032;28;20380;-55
2020/12/20 09:11:50;;;;;;;65.20;29.77;;;8.30;99.90;;;;;;5053950;28;20864;-55
2020/12/20 09:14:17;;;;;;;55.67;28.23;;;8.20;99.90;;;;;;5073777;28;20405;-53
2020/12/20 09:16:43;;;;;;;59.00;28.25;;;8.30;99.90;;;;;;5071939;28;20400;-56
2020/12/20 09:19:11;;;;;;;61.45;27.83;;;8.30;99.90;;;;;;5073521;28;20390;-56
2020/12/20 09:21:37;;;;;;;60.55;28.15;;;8.30;99.90;;;;;;5069106;28;21322;-56
2020/12/20 09:24:03;;;;;;;60.25;28.67;;;8.30;99.90;;;;;;5057703;28;20406;-56
2020/12/20 09:26:29;;;;;;;53.10;26.73;;;8.30;99.90;;;;;;5072545;28;20389;-56
2020/12/20 09:28:55;;;;;;;57.23;27.27;;;8.30;99.90;;;;;;5072625;28;20394;-54
2020/12/20 09:31:22;;;;;;;51.95;26.30;;;8.30;99.90;;;;;;5061626;28;20832;-56
2020/12/20 09:33:48;;;;;;;57.47;27.33;;;8.30;99.90;;;;;;5057885;28;20398;-53
2020/12/20 09:36:24;;;;;;;54.58;28.08;;;8.30;99.90;;;;;;5072987;28;20389;-56
2020/12/20 09:38:52;;;;;;;58.67;26.85;;;8.30;99.90;;;;;;5068685;28;20386;-56
2020/12/20 09:41:20;;;;;;;50.63;26.95;;;8.30;99.90;;;;;;5071262;28;20688;-55
2020/12/20 09:43:47;;;;;;;57.83;26.30;;;8.30;99.90;;;;;;5070906;28;21222;-56
2020/12/20 09:46:25;;;;;;;48.78;25.30;;;8.20;99.90;;;;;;5072245;28;20386;-56
2020/12/20 09:48:51;;;;;;;55.13;26.00;;;8.30;99.90;;;;;;5071363;28;20394;-55
2020/12/20 09:51:18;;;;;;;52.30;25.75;;;8.20;99.90;;;;;;5064141;28;20378;-56
2020/12/20 09:53:45;;;;;;;51.10;25.17;;;8.20;99.90;;;;;;5069377;28;20394;-56
2020/12/20 09:56:12;;;;;;;50.15;25.48;;;8.20;99.90;;;;;;5069999;28;20397;-56
2020/12/20 09:58:41;;;;;;;55.40;24.90;;;8.10;99.90;;;;;;5071047;28;20743;-56
2020/12/20 10:01:07;;;;;;;51.35;24.60;;;8.10;99.90;;;;;;5071259;28;21010;-56
2020/12/20 10:03:33;;;;;;;48.53;24.83;;;8.10;99.90;;;;;;5068459;28;20441;-55
2020/12/20 10:06:03;;;;;;;52.47;25.88;;;8.00;99.90;;;;;;5070189;28;20382;-54
2020/12/20 10:08:29;;;;;;;54.22;25.10;;;7.90;99.90;;;;;;5070677;28;20394;-54
2020/12/20 10:10:55;;;;;;;47.85;25.40;;;7.90;99.90;;;;;;5071208;28;20382;-56
2020/12/20 10:13:22;;;;;;;45.33;25.00;;;7.90;99.90;;;;;;5071700;28;20720;-56
2020/12/20 10:15:48;;;;;;;50.72;25.75;;;7.80;99.90;;;;;;5070644;28;20416;-55
2020/12/20 10:18:14;;;;;;;48.55;25.35;;;7.80;99.90;;;;;;5070979;28;20725;-53
2020/12/20 10:20:40;;;;;;;50.95;25.60;;;7.90;99.90;;;;;;5071427;28;20393;-53
2020/12/20 10:23:07;;;;;;;50.35;25.20;;;7.90;99.90;;;;;;5072077;28;20393;-52
2020/12/20 10:25:33;;;;;;;50.22;26.08;;;7.90;99.90;;;;;;5070693;28;20378;-54
2020/12/20 10:27:59;;;;;;;51.25;24.67;;;7.80;99.90;;;;;;5070403;28;20389;-56
2020/12/20 10:30:26;;;;;;;50.28;25.33;;;7.80;99.90;;;;;;5052198;28;20387;-57
2020/12/20 10:32:54;;;;;;;53.35;25.52;;;7.90;99.90;;;;;;5070286;28;20389;-54
2020/12/20 10:35:23;;;;;;;51.20;25.75;;;7.90;99.90;;;;;;5067906;28;20405;-55
2020/12/20 10:37:51;;;;;;;51.03;25.27;;;7.90;99.90;;;;;;5071275;28;20890;-56
2020/12/20 10:40:17;;;;;;;46.15;25.10;;;7.90;99.90;;;;;;5071761;28;20528;-56
2020/12/20 10:42:45;;;;;;;51.67;26.35;;;7.80;99.90;;;;;;5069070;28;20394;-56
2020/12/20 10:45:12;;;;;;;50.10;25.10;;;7.80;99.90;;;;;;5070934;28;20417;-54
2020/12/20 10:47:38;;;;;;;51.25;25.65;;;7.80;99.90;;;;;;5070548;28;20386;-55
2020/12/20 10:50:04;;;;;;;53.00;24.60;;;7.80;99.90;;;;;;5070999;28;20398;-54
2020/12/20 10:52:30;;;;;;;49.53;24.23;;;7.80;99.90;;;;;;5071637;28;20381;-56
2020/12/20 10:54:56;;;;;;;51.50;24.77;;;7.80;99.90;;;;;;5071548;28;20874;-54
2020/12/20 10:57:22;;;;;;;44.78;24.42;;;7.70;99.90;;;;;;5070899;28;20462;-55
2020/12/20 10:59:49;;;;;;;50.80;25.00;;;7.80;99.90;;;;;;5070817;28;20390;-54
2020/12/20 11:02:15;;;;;;;45.13;25.08;;;7.70;99.90;;;;;;5071307;28;20382;-53
2020/12/20 11:04:43;;;;;;;50.13;24.55;;;7.70;99.90;;;;;;5070059;28;20418;-56
2020/12/20 11:07:09;;;;;;;52.20;25.70;;;7.80;99.90;;;;;;5070811;28;20394;-56
2020/12/20 11:09:38;;;;;;;47.90;23.98;;;7.70;99.90;;;;;;5069914;28;20382;-54
2020/12/20 11:12:04;;;;;;;47.13;24.48;;;7.80;99.90;;;;;;5071374;28;20750;-55
2020/12/20 11:14:33;;;;;;;45.35;24.38;;;7.80;99.90;;;;;;5070482;28;20402;-56
2020/12/20 11:17:00;;;;;;;47.05;24.55;;;7.80;99.90;;;;;;5071306;28;20402;-56
2020/12/20 11:19:26;;;;;;;45.77;23.73;;;7.80;99.90;;;;;;5070783;28;21296;-56
2020/12/20 11:21:53;;;;;;;45.30;24.73;;;7.80;99.90;;;;;;5070868;28;20843;-54
2020/12/20 11:24:23;;;;;;;51.70;25.45;;;7.80;99.90;;;;;;5071308;28;20402;-54
2020/12/20 11:26:50;;;;;;;44.55;24.05;;;7.80;99.90;;;;;;5070054;28;20382;-56
2020/12/20 11:29:16;;;;;;;45.45;24.00;;;7.80;99.90;;;;;;5070889;28;20728;-55
2020/12/20 11:31:43;;;;;;;49.20;25.13;;;7.90;99.90;;;;;;5071319;28;20386;-60
2020/12/20 11:34:09;;;;;;;48.20;24.45;;;7.90;99.90;;;;;;5070382;28;20398;-55
2020/12/20 11:36:35;;;;;;;50.72;25.67;;;7.80;99.90;;;;;;5070695;28;20389;-56
2020/12/20 11:39:06;;;;;;;46.30;24.25;;;7.80;99.90;;;;;;5057229;28;20391;-56
2020/12/20 11:41:32;;;;;;;45.80;24.23;;;7.90;99.90;;;;;;5067165;28;20389;-60
2020/12/20 11:43:59;;;;;;;46.67;24.45;;;7.90;99.90;;;;;;5069662;28;20886;-56
2020/12/20 11:46:25;;;;;;;43.10;23.47;;;7.90;99.90;;;;;;5069486;28;20413;-53
2020/12/20 11:48:51;;;;;;;42.43;22.20;;;7.90;99.90;;;;;;5070145;28;20390;-55
2020/12/20 11:51:18;;;;;;;43.22;22.88;;;7.90;99.90;;;;;;5066789;28;20385;-55
2020/12/20 11:53:44;;;;;;;41.57;22.60;;;7.80;99.90;;;;;;5056376;28;20389;-55
2020/12/20 11:56:11;;;;;;;46.83;23.10;;;7.80;99.90;;;;;;5056330;28;20393;-52
2020/12/20 11:58:38;;;;;;;43.95;22.90;;;7.80;99.90;;;;;;5069829;28;20387;-61
2020/12/20 12:01:04;;;;;;;49.03;22.42;;;7.80;99.90;;;;;;5067771;28;20390;-53
2020/12/20 12:03:33;;;;;;;49.25;23.73;;;7.80;99.90;;;;;;5068568;28;20626;-56
2020/12/20 12:06:00;;;;;;;48.80;23.63;;;7.70;99.90;;;;;;5068464;28;20480;-55
2020/12/20 12:08:26;;;;;;;45.38;24.05;;;7.70;99.90;;;;;;5068368;28;21031;-54
2020/12/20 12:10:53;;;;;;;41.45;23.45;;;7.70;99.90;;;;;;5068546;28;20390;-55
2020/12/20 12:13:19;;;;;;;44.78;23.30;;;7.80;99.90;;;;;;5066374;28;20470;-55
2020/12/20 12:15:45;;;;;;;45.30;23.40;;;7.70;99.90;;;;;;5067265;28;20440;-52
2020/12/20 12:18:12;;;;;;;48.20;24.05;;;7.70;99.90;;;;;;5066794;28;20394;-54
2020/12/20 12:20:38;;;;;;;52.63;24.50;;;7.70;99.90;;;;;;5066422;28;20401;-54
2020/12/20 12:23:04;;;;;;;47.10;24.95;;;7.70;99.90;;;;;;5068059;28;20393;-55
2020/12/20 12:25:30;;;;;;;48.85;24.60;;;7.70;99.90;;;;;;5068736;28;20479;-55
2020/12/20 12:27:56;;;;;;;40.17;23.50;;;7.70;99.90;;;;;;5068100;28;20390;-55
2020/12/20 12:30:23;;;;;;;48.17;26.23;;;7.70;99.90;;;;;;5068052;28;20390;-56
2020/12/20 12:32:52;;;;;;;45.60;24.52;;;7.60;99.90;;;;;;5067086;28;20390;-54
2020/12/20 12:35:21;;;;;;;49.93;25.87;;;7.60;99.90;;;;;;5066738;28;20409;-52
2020/12/20 12:37:49;;;;;;;46.67;26.43;;;7.60;99.90;;;;;;5063906;28;20398;-55